Time;durP1;ratioP1;P1;durP2;ratioP2;P2;SDS_P1;SDS_P2;PMS_P1;PMS_P2;Temp;Humidity;BMP_temperature;BMP_pressure;BME280_temperature;BME280_humidity;BME280_pressure;Samples;Min_cycle;Max_cycle;Signal;HPM_P1;HPM_P2
2021/07/15 00:02:18;;;;;;;38.00;18.05;;;;;;;19.84;78.08;100122.48;1619811;87;21232;-69
2021/07/15 00:04:44;;;;;;;28.45;12.70;;;;;;;19.80;78.16;100118.59;1646656;87;22372;-69
2021/07/15 00:07:10;;;;;;;25.62;11.90;;;;;;;19.76;78.27;100087.13;1646418;87;21808;-69
2021/07/15 00:09:37;;;;;;;23.83;11.30;;;;;;;19.75;78.36;100087.34;1648132;87;21054;-69
2021/07/15 00:12:06;;;;;;;18.70;11.00;;;;;;;19.72;78.44;100082.41;1620916;88;21030;-69
2021/07/15 00:14:32;;;;;;;25.05;11.40;;;;;;;19.65;78.50;100080.36;1621179;88;27060;-69
2021/07/15 00:16:58;;;;;;;26.20;13.00;;;;;;;19.61;78.61;100081.89;1620868;88;21051;-69
2021/07/15 00:19:26;;;;;;;23.35;14.23;;;;;;;19.57;78.68;100075.30;1621010;88;21503;-69
2021/07/15 00:21:52;;;;;;;22.98;12.35;;;;;;;19.51;78.74;100070.84;1621063;87;21084;-69
2021/07/15 00:24:18;;;;;;;26.40;13.88;;;;;;;19.44;78.84;100063.67;1620968;88;21034;-69
2021/07/15 00:26:45;;;;;;;24.52;13.38;;;;;;;19.38;78.89;100061.89;1620569;87;21693;-69
2021/07/15 00:29:11;;;;;;;25.55;13.05;;;;;;;19.33;79.01;100055.53;1620723;88;21503;-69
2021/07/15 00:31:37;;;;;;;26.95;12.75;;;;;;;19.29;79.08;100052.47;1620804;88;21574;-69
2021/07/15 00:34:03;;;;;;;30.32;13.10;;;;;;;19.27;79.17;100048.36;1620963;88;21034;-69
2021/07/15 00:36:29;;;;;;;29.40;13.35;;;;;;;19.24;79.21;100037.50;1620583;88;21038;-69
2021/07/15 00:38:55;;;;;;;24.32;14.18;;;;;;;19.22;79.27;100035.54;1620958;88;21152;-69
2021/07/15 00:41:21;;;;;;;23.05;14.80;;;;;;;19.20;79.36;100027.37;1620074;88;21086;-69
2021/07/15 00:43:47;;;;;;;31.07;14.98;;;;;;;19.18;79.41;100022.19;1621040;88;21522;-69
2021/07/15 00:46:13;;;;;;;32.45;16.15;;;;;;;19.16;79.49;100013.50;1620945;88;21579;-69
2021/07/15 00:48:39;;;;;;;29.85;13.58;;;;;;;19.14;79.54;100015.60;1621015;88;21022;-69
2021/07/15 00:51:06;;;;;;;27.07;13.70;;;;;;;19.12;79.62;100014.20;1620965;88;21159;-69
2021/07/15 00:53:33;;;;;;;24.00;14.40;;;;;;;19.07;79.70;100012.19;1620817;88;21090;-69
2021/07/15 00:55:59;;;;;;;42.88;15.55;;;;;;;19.04;79.76;100007.27;1620981;88;21010;-69
2021/07/15 00:58:25;;;;;;;23.65;14.35;;;;;;;19.02;79.83;100005.33;1620872;88;21585;-69
2021/07/15 01:00:51;;;;;;;22.93;14.13;;;;;;;18.99;79.90;100002.28;1620897;88;21053;-70
2021/07/15 01:03:19;;;;;;;29.48;14.07;;;;;;;18.96;79.95;99990.06;1620616;88;21873;-69
2021/07/15 01:05:50;;;;;;;23.12;14.20;;;;;;;18.93;79.98;99987.28;1620760;88;21038;-69
2021/07/15 01:08:16;;;;;;;31.00;13.90;;;;;;;18.91;80.08;99985.87;1647015;87;21065;-69
2021/07/15 01:10:46;;;;;;;27.48;13.60;;;;;;;18.88;80.12;99981.77;1647909;87;21083;-69
2021/07/15 01:13:27;;;;;;;23.45;13.20;;;;;;;18.86;80.18;99981.69;1621082;88;21094;-69
2021/07/15 01:16:08;;;;;;;30.48;14.15;;;;;;;18.85;80.24;99986.82;1608070;88;21522;-69
2021/07/15 01:19:29;;;;;;;26.42;14.35;;;;;;;18.81;80.31;99995.09;1620758;88;21661;-69
2021/07/15 01:22:06;;;;;;;24.07;13.18;;;;;;;18.78;80.35;99984.23;1620937;88;21046;-69
2021/07/15 01:25:18;;;;;;;31.05;12.63;;;;;;;18.73;80.42;99993.55;1620684;88;21014;-69
2021/07/15 01:28:18;;;;;;;22.27;12.50;;;;;;;18.71;80.47;99992.14;1622819;86;21117;-69
2021/07/15 01:30:50;;;;;;;27.35;12.53;;;;;;;18.68;80.52;99989.91;1625775;86;21173;-69
2021/07/15 01:33:28;;;;;;;24.82;13.43;;;;;;;18.68;80.59;100000.72;1625683;88;21618;-69
2021/07/15 01:35:57;;;;;;;28.87;12.80;;;;;;;18.65;80.63;100001.16;1625584;88;21109;-69
2021/07/15 01:38:25;;;;;;;;;;;;;;;18.63;80.67;99995.17;1628103;88;21083;-69
2021/07/15 01:40:59;;;;;;;28.98;12.13;;;;;;;18.62;80.71;100000.27;1625498;88;20172;-69
2021/07/15 01:43:42;;;;;;;27.80;12.68;;;;;;;18.61;80.76;100002.70;1625798;88;21303;-69
2021/07/15 01:46:08;;;;;;;22.22;11.63;;;;;;;18.59;80.79;100008.32;1625792;88;21046;-69
2021/07/15 01:48:34;;;;;;;22.32;11.55;;;;;;;18.56;80.83;100012.84;1625787;88;21344;-69
2021/07/15 01:51:00;;;;;;;17.27;11.85;;;;;;;18.55;80.86;100017.11;1600231;88;21210;-69
2021/07/15 01:53:26;;;;;;;23.70;12.25;;;;;;;18.54;80.91;100020.89;1625607;88;21057;-69
2021/07/15 01:55:53;;;;;;;29.35;12.13;;;;;;;18.51;80.94;100018.09;1625622;88;21183;-69
2021/07/15 01:58:19;;;;;;;25.27;12.35;;;;;;;18.50;80.99;100018.31;1625438;88;21041;-69
2021/07/15 02:00:45;;;;;;;21.25;12.05;;;;;;;18.47;81.01;100023.10;1625773;88;21081;-69
2021/07/15 02:03:11;;;;;;;22.00;11.65;;;;;;;18.45;81.09;100013.07;1625580;88;21078;-69
2021/07/15 02:05:37;;;;;;;22.13;12.55;;;;;;;18.44;81.12;100006.54;1625684;88;21073;-69
2021/07/15 02:08:04;;;;;;;21.45;11.63;;;;;;;18.43;81.14;100009.80;1625533;88;21143;-69
2021/07/15 02:10:30;;;;;;;25.15;12.75;;;;;;;18.42;81.15;100024.34;1599858;88;21160;-69
2021/07/15 02:12:56;;;;;;;17.67;11.50;;;;;;;18.40;81.20;100025.08;1625699;88;21494;-69
2021/07/15 02:15:25;;;;;;;22.82;11.57;;;;;;;18.38;81.24;100036.64;1626566;86;21105;-69
2021/07/15 02:17:51;;;;;;;22.02;11.53;;;;;;;18.34;81.25;100035.45;1625790;88;21514;-69
2021/07/15 02:20:18;;;;;;;18.73;12.25;;;;;;;18.31;81.30;100041.31;1625586;88;21948;-69
2021/07/15 02:22:44;;;;;;;22.95;11.20;;;;;;;18.27;81.32;100038.77;1625471;86;21014;-69
2021/07/15 02:25:10;;;;;;;25.40;11.78;;;;;;;18.27;81.35;100046.04;1625369;88;21142;-69
2021/07/15 02:27:37;;;;;;;17.12;12.18;;;;;;;18.24;81.38;100040.58;1625519;87;21050;-69
2021/07/15 02:30:09;;;;;;;20.72;11.97;;;;;;;18.20;81.41;100044.78;1625678;88;21098;-69
2021/07/15 02:32:35;;;;;;;19.00;10.80;;;;;;;18.19;81.44;100051.22;1625350;88;21203;-69
2021/07/15 02:35:05;;;;;;;26.10;13.10;;;;;;;18.17;81.44;100051.16;1625656;88;21094;-69
2021/07/15 02:37:36;;;;;;;25.72;13.72;;;;;;;18.14;81.47;100044.88;1625494;88;21041;-69
2021/07/15 02:40:08;;;;;;;20.43;12.53;;;;;;;18.12;81.50;100045.09;1599753;88;21106;-69
2021/07/15 02:42:34;;;;;;;25.62;12.80;;;;;;;18.09;81.50;100046.90;1625666;88;21609;-69
2021/07/15 02:45:00;;;;;;;19.32;12.53;;;;;;;18.07;81.52;100053.06;1625525;88;21824;-69
2021/07/15 02:47:27;;;;;;;17.67;11.53;;;;;;;18.00;81.52;100056.37;1625423;88;21026;-69
2021/07/15 02:49:53;;;;;;;27.95;12.82;;;;;;;17.97;81.56;100058.17;1625476;88;21038;-69
2021/07/15 02:52:21;;;;;;;26.48;13.68;;;;;;;17.97;81.60;100055.47;1625451;88;37845;-69
2021/07/15 02:54:47;;;;;;;21.82;12.33;;;;;;;17.96;81.62;100059.22;1625269;88;21557;-69
2021/07/15 02:57:24;;;;;;;32.83;14.00;;;;;;;17.92;81.64;100064.76;1625798;88;22087;-69
2021/07/15 03:00:09;;;;;;;28.95;12.85;;;;;;;17.89;81.68;100066.04;1624837;88;21077;-69
2021/07/15 03:02:55;;;;;;;22.10;13.13;;;;;;;17.87;81.72;100065.98;1625173;86;21050;-69
2021/07/15 03:05:25;;;;;;;25.05;13.98;;;;;;;17.86;81.70;100071.06;1599570;89;21537;-69
2021/07/15 03:07:58;;;;;;;23.40;13.98;;;;;;;17.81;81.72;100072.25;1625811;87;21044;-69
2021/07/15 03:10:25;;;;;;;32.40;16.25;;;;;;;17.78;81.78;100078.09;1654635;86;21145;-69
2021/07/15 03:12:51;;;;;;;29.85;17.12;;;;;;;17.77;81.81;100079.14;1625530;88;21025;-69
2021/07/15 03:15:17;;;;;;;29.98;16.00;;;;;;;17.78;81.84;100076.75;1625771;86;21050;-69
2021/07/15 03:17:49;;;;;;;29.30;16.62;;;;;;;17.78;81.86;100074.05;1625751;88;21022;-69
2021/07/15 03:20:19;;;;;;;27.05;16.50;;;;;;;17.79;81.90;100070.31;1599923;88;21537;-69
2021/07/15 03:22:47;;;;;;;31.15;16.23;;;;;;;17.78;81.92;100074.05;1625502;86;21839;-69
2021/07/15 03:25:16;;;;;;;27.30;15.18;;;;;;;17.78;81.96;100082.97;1625507;88;21017;-69
2021/07/15 03:27:44;;;;;;;26.33;14.93;;;;;;;17.74;81.94;100077.72;1625752;87;21030;-69
2021/07/15 03:30:11;;;;;;;29.85;15.00;;;;;;;17.75;82.01;100086.64;1625369;88;21034;-69
2021/07/15 03:32:38;;;;;;;23.55;13.35;;;;;;;17.75;82.05;100086.64;1625450;88;21065;-69
2021/07/15 03:35:05;;;;;;;20.12;13.40;;;;;;;17.78;82.06;100091.58;1625733;88;21853;-69
2021/07/15 03:37:31;;;;;;;24.32;13.80;;;;;;;17.81;82.09;100087.91;1625640;88;21026;-69
2021/07/15 03:39:57;;;;;;;27.27;12.73;;;;;;;17.85;82.11;100082.89;1625731;88;21026;-69
2021/07/15 03:42:23;;;;;;;30.88;12.40;;;;;;;17.88;82.12;100092.71;1625762;88;21038;-69
2021/07/15 03:44:49;;;;;;;24.35;13.45;;;;;;;17.91;82.14;100081.47;1626011;88;21514;-69
2021/07/15 03:47:15;;;;;;;21.20;12.78;;;;;;;17.95;82.15;100081.84;1650972;87;21527;-69
2021/07/15 03:49:43;;;;;;;18.82;12.53;;;;;;;17.98;82.16;100089.48;1625777;88;21066;-69
2021/07/15 03:52:16;;;;;;;18.70;11.75;;;;;;;18.01;82.18;100087.70;1625806;88;21011;-69
2021/07/15 03:54:44;;;;;;;22.35;12.40;;;;;;;18.03;82.20;100092.86;1625494;88;21558;-69
2021/07/15 03:57:13;;;;;;;17.98;12.40;;;;;;;18.05;82.23;100092.92;1626009;88;21080;-69
2021/07/15 03:59:43;;;;;;;23.75;13.25;;;;;;;18.09;82.25;100096.83;1625503;88;21705;-69
2021/07/15 04:02:09;;;;;;;20.15;12.43;;;;;;;18.13;82.28;100089.10;1625635;88;21030;-69
2021/07/15 04:04:35;;;;;;;21.30;12.40;;;;;;;18.18;82.28;100084.69;1625334;88;21082;-69
2021/07/15 04:07:03;;;;;;;28.65;13.20;;;;;;;18.21;82.29;100084.23;1625877;88;21522;-69
2021/07/15 04:09:31;;;;;;;22.45;12.03;;;;;;;18.26;82.31;100084.36;1625791;88;21068;-69
2021/07/15 04:11:57;;;;;;;21.87;11.95;;;;;;;18.28;82.29;100079.57;1625492;88;21073;-69
2021/07/15 04:15:03;;;;;;;19.65;11.57;;;;;;;18.28;82.29;100070.64;1625747;88;21025;-69
2021/07/15 04:17:31;;;;;;;23.42;12.18;;;;;;;18.30;82.34;100076.62;1615097;88;21045;-69
2021/07/15 04:20:02;;;;;;;20.23;12.75;;;;;;;18.33;82.32;100081.05;1599715;88;21157;-69
2021/07/15 04:22:28;;;;;;;21.82;11.25;;;;;;;18.33;82.30;100074.84;1600209;88;21054;-69
2021/07/15 04:24:54;;;;;;;23.50;11.65;;;;;;;18.39;82.32;100072.58;1625328;88;21178;-69
2021/07/15 04:27:21;;;;;;;22.80;12.70;;;;;;;18.40;82.28;100072.33;1625549;88;21043;-69
2021/07/15 04:29:47;;;;;;;29.80;11.95;;;;;;;18.44;82.29;100076.22;1644347;87;21495;-69
2021/07/15 04:32:26;;;;;;;20.40;11.20;;;;;;;18.49;82.28;100071.50;1660063;86;21063;-69
2021/07/15 04:34:54;;;;;;;24.10;12.00;;;;;;;18.50;82.26;100070.45;1653739;86;21043;-69
2021/07/15 04:37:20;;;;;;;22.80;11.78;;;;;;;18.57;82.28;100075.27;1653645;86;21043;-69
2021/07/15 04:39:46;;;;;;;21.23;11.80;;;;;;;18.63;82.24;100074.34;1659350;86;21516;-69
2021/07/15 04:42:12;;;;;;;22.10;11.78;;;;;;;18.65;82.21;100078.97;1644705;87;21038;-69
2021/07/15 04:44:38;;;;;;;23.92;12.75;;;;;;;18.68;82.20;100085.81;1661285;86;20999;-69
2021/07/15 04:47:05;;;;;;;26.93;13.20;;;;;;;18.74;82.20;100087.06;1644648;87;21044;-69
2021/07/15 04:49:31;;;;;;;32.53;14.53;;;;;;;18.72;82.16;100093.20;1656524;86;21729;-69
2021/07/15 04:51:57;;;;;;;25.00;13.25;;;;;;;18.73;82.14;100092.68;1659225;86;21472;-69
2021/07/15 04:54:24;;;;;;;34.38;13.75;;;;;;;18.66;82.09;100095.48;1644655;87;21597;-69
2021/07/15 04:56:50;;;;;;;37.28;15.08;;;;;;;18.62;82.10;100094.81;1657733;86;21168;-69
2021/07/15 04:59:16;;;;;;;34.15;15.28;;;;;;;18.64;82.10;100098.13;1653461;86;21943;-69
2021/07/15 05:01:42;;;;;;;28.65;14.07;;;;;;;18.65;82.12;100098.41;1656318;86;22091;-69
2021/07/15 05:04:08;;;;;;;29.75;14.63;;;;;;;18.63;82.12;100099.17;1644051;87;21070;-69
2021/07/15 05:06:34;;;;;;;28.55;14.78;;;;;;;18.67;82.12;100105.77;1639474;86;21051;-69
2021/07/15 05:09:01;;;;;;;29.12;14.40;;;;;;;18.70;82.10;100101.25;1644573;86;21041;-69
2021/07/15 05:11:27;;;;;;;28.83;15.00;;;;;;;18.68;82.08;100095.27;1658657;86;21038;-69
2021/07/15 05:13:53;;;;;;;38.23;17.60;;;;;;;18.69;82.09;100096.89;1655788;86;21096;-69
2021/07/15 05:16:19;;;;;;;38.30;14.98;;;;;;;18.74;82.11;100090.28;1644534;87;21058;-69
2021/07/15 05:18:45;;;;;;;37.60;16.85;;;;;;;18.81;82.11;100092.36;1644770;87;21554;-69
2021/07/15 05:21:11;;;;;;;34.83;15.48;;;;;;;18.82;82.11;100094.02;1656712;86;21103;-69
2021/07/15 05:23:37;;;;;;;33.73;17.02;;;;;;;18.79;82.09;100093.11;1656822;85;21087;-69
2021/07/15 05:26:03;;;;;;;39.38;18.75;;;;;;;18.77;82.10;100097.92;1644600;87;21113;-69
2021/07/15 05:28:29;;;;;;;42.62;19.37;;;;;;;18.85;82.14;100093.55;1657120;86;21084;-69
2021/07/15 05:30:55;;;;;;;39.35;18.65;;;;;;;18.94;82.13;100092.16;1649747;87;21058;-69
2021/07/15 05:33:21;;;;;;;33.67;17.75;;;;;;;19.04;82.10;100092.41;1625899;88;21560;-69
2021/07/15 05:35:47;;;;;;;42.67;16.27;;;;;;;19.11;82.07;100093.12;1650927;87;21094;-69
2021/07/15 05:38:13;;;;;;;39.80;18.07;;;;;;;19.14;82.05;100086.45;1625833;88;21105;-69
2021/07/15 05:40:39;;;;;;;41.13;17.90;;;;;;;19.22;82.11;100081.50;1625863;88;21049;-70
2021/07/15 05:43:05;;;;;;;44.08;17.57;;;;;;;19.34;82.12;100086.41;1648178;87;21030;-69
2021/07/15 05:45:32;;;;;;;41.58;17.77;;;;;;;19.36;82.06;100088.33;1623648;87;21043;-69
2021/07/15 05:47:58;;;;;;;32.30;15.98;;;;;;;19.40;82.03;100086.81;1649776;86;21530;-69
2021/07/15 05:50:24;;;;;;;42.00;16.00;;;;;;;19.43;82.04;100090.95;1650411;87;21246;-69
2021/07/15 05:52:50;;;;;;;42.73;17.25;;;;;;;19.42;81.99;100089.32;1648696;85;21120;-69
2021/07/15 05:55:16;;;;;;;36.20;17.80;;;;;;;19.44;82.02;100079.91;1625589;88;21097;-69
2021/07/15 05:57:42;;;;;;;31.33;15.98;;;;;;;19.52;81.98;100086.02;1637097;86;21025;-69
2021/07/15 06:00:10;;;;;;;34.30;17.25;;;;;;;19.60;81.97;100086.47;1650320;85;21097;-70
2021/07/15 06:02:36;;;;;;;28.55;16.93;;;;;;;19.79;81.93;100084.47;1625672;87;21427;-70
2021/07/15 06:05:03;;;;;;;32.78;16.40;;;;;;;20.00;81.85;100093.84;1658851;85;21070;-69
2021/07/15 06:07:29;;;;;;;28.00;15.68;;;;;;;20.06;81.74;100084.75;1649224;87;21034;-69
2021/07/15 06:09:55;;;;;;;30.10;14.80;;;;;;;20.12;81.64;100081.94;1661792;85;21041;-69
2021/07/15 06:12:21;;;;;;;28.87;15.72;;;;;;;20.16;81.57;100087.14;1660547;85;21078;-69
2021/07/15 06:14:47;;;;;;;37.55;16.97;;;;;;;20.19;81.54;100089.92;1625510;88;21676;-69
2021/07/15 06:17:13;;;;;;;29.90;14.85;;;;;;;20.31;81.52;100088.84;1625440;87;21043;-69
2021/07/15 06:19:39;;;;;;;34.27;15.95;;;;;;;20.38;81.34;100094.11;1649856;87;21042;-70
2021/07/15 06:22:05;;;;;;;26.73;14.70;;;;;;;20.48;81.29;100098.36;1649484;85;21474;-69
2021/07/15 06:24:32;;;;;;;26.85;14.70;;;;;;;20.65;81.16;100097.08;1650528;87;21073;-70
2021/07/15 06:26:58;;;;;;;28.10;15.00;;;;;;;20.73;81.03;100102.09;1625306;86;21692;-70
2021/07/15 06:29:24;;;;;;;37.83;14.00;;;;;;;20.82;80.93;100104.18;1660717;85;20907;-70
2021/07/15 06:31:50;;;;;;;35.95;14.70;;;;;;;21.06;80.85;100110.28;1625521;88;21070;-70
2021/07/15 06:34:16;;;;;;;21.05;13.10;;;;;;;21.29;80.68;100110.14;1624626;86;21114;-69
2021/07/15 06:36:44;;;;;;;32.28;13.65;;;;;;;21.56;80.50;100109.48;1612723;86;21050;-70
2021/07/15 06:39:10;;;;;;;20.27;12.78;;;;;;;21.81;80.26;100107.14;1657677;85;22220;-69
2021/07/15 06:41:36;;;;;;;26.27;13.35;;;;;;;22.00;79.98;100111.23;1655598;85;20946;-69
2021/07/15 06:44:03;;;;;;;20.70;12.70;;;;;;;22.13;79.87;100098.62;1653929;86;20969;-70
2021/07/15 06:46:30;;;;;;;20.17;11.22;;;;;;;22.46;79.67;100090.05;1654258;86;21033;-70
2021/07/15 06:48:56;;;;;;;13.70;10.20;;;;;;;22.88;79.41;100089.69;1654278;86;21021;-70
2021/07/15 06:51:22;;;;;;;20.45;10.45;;;;;;;23.39;79.15;100080.89;1654265;85;21843;-70
2021/07/15 06:53:49;;;;;;;18.67;10.18;;;;;;;23.74;78.73;100069.42;1670598;85;21029;-70
2021/07/15 06:56:15;;;;;;;16.70;10.72;;;;;;;23.84;78.26;100071.37;1655031;85;21089;-70
2021/07/15 06:58:41;;;;;;;13.22;8.50;;;;;;;23.86;77.82;100082.27;1624980;88;21053;-70
2021/07/15 07:01:12;;;;;;;16.82;8.45;;;;;;;24.06;77.45;100088.92;1634493;86;21030;-70
2021/07/15 07:03:36;;;;;;;15.03;8.45;;;;;;;23.82;77.01;100102.13;1650604;86;22463;-70
2021/07/15 07:06:03;;;;;;;13.55;7.45;;;;;;;23.90;76.69;100105.72;1651230;86;21490;-70
2021/07/15 07:08:29;;;;;;;13.15;8.70;;;;;;;23.85;76.21;100108.44;1646001;86;21092;-70
2021/07/15 07:10:55;;;;;;;17.17;8.08;;;;;;;23.71;75.86;100104.54;1624682;88;21114;-70
2021/07/15 07:13:21;;;;;;;14.78;6.85;;;;;;;23.79;75.53;100096.67;1657492;85;21029;-70
2021/07/15 07:15:47;;;;;;;11.45;7.20;;;;;;;23.88;75.21;100091.02;1662863;85;21945;-70
2021/07/15 07:18:13;;;;;;;12.13;7.72;;;;;;;24.42;75.00;100086.61;1648415;86;21002;-70
2021/07/15 07:20:39;;;;;;;14.15;7.72;;;;;;;25.03;74.65;100079.39;1652886;85;21368;-70
2021/07/15 07:23:05;;;;;;;16.50;10.58;;;;;;;25.61;74.15;100079.94;1651329;85;20929;-71
2021/07/15 07:25:31;;;;;;;7.50;5.60;;;;;;;25.77;73.37;100073.32;1665004;85;21069;-71
2021/07/15 07:27:57;;;;;;;13.03;6.30;;;;;;;25.67;72.78;100076.09;1663658;85;22008;-70
2021/07/15 07:30:23;;;;;;;10.68;5.20;;;;;;;25.37;72.40;100074.75;1664006;85;21085;-70
2021/07/15 07:32:49;;;;;;;16.30;6.17;;;;;;;25.54;72.00;100084.32;1677260;85;21014;-70
2021/07/15 07:35:16;;;;;;;7.95;5.85;;;;;;;25.74;71.45;100084.27;1662790;85;21569;-70
2021/07/15 07:37:42;;;;;;;9.23;5.87;;;;;;;25.31;70.87;100080.20;1632349;87;21066;-70
2021/07/15 07:40:09;;;;;;;10.23;5.92;;;;;;;24.93;70.68;100079.39;1621826;88;21841;-70
2021/07/15 07:42:35;;;;;;;12.13;7.55;;;;;;;24.61;70.40;100086.95;1647806;87;21027;-70
2021/07/15 07:45:02;;;;;;;9.73;5.90;;;;;;;24.33;70.28;100093.15;1624480;87;21415;-70
2021/07/15 07:47:28;;;;;;;8.20;6.47;;;;;;;24.17;70.15;100096.09;1630149;86;21084;-70
2021/07/15 07:49:54;;;;;;;8.78;6.78;;;;;;;24.19;70.02;100101.55;1624945;88;21052;-70
2021/07/15 07:52:20;;;;;;;7.33;5.25;;;;;;;24.33;69.89;100101.33;1655149;85;21965;-70
2021/07/15 07:54:46;;;;;;;10.58;5.25;;;;;;;24.78;69.86;100109.34;1649771;87;20973;-70
2021/07/15 07:57:12;;;;;;;9.00;5.67;;;;;;;25.31;69.54;100103.41;1652250;85;21110;-70
2021/07/15 07:59:38;;;;;;;10.35;5.60;;;;;;;25.73;69.13;100105.02;1655788;85;21010;-74
2021/07/15 08:02:04;;;;;;;6.55;4.80;;;;;;;26.02;68.88;100107.41;1667424;85;21035;-74
2021/07/15 08:04:30;;;;;;;13.83;4.85;;;;;;;26.24;68.29;100114.75;1654261;85;21738;-74
2021/07/15 08:06:57;;;;;;;12.58;5.10;;;;;;;25.99;67.86;100112.06;1649039;87;21477;-73
2021/07/15 08:09:24;;;;;;;7.75;4.30;;;;;;;26.08;67.47;100111.75;1664050;85;21470;-74
2021/07/15 08:11:54;;;;;;;5.70;4.33;;;;;;;25.79;67.01;100113.50;1679056;85;21070;-74
2021/07/15 08:14:19;;;;;;;6.73;4.20;;;;;;;25.20;66.68;100120.88;1664014;85;21049;-74
2021/07/15 08:16:46;;;;;;;7.95;4.28;;;;;;;25.03;66.76;100117.59;1655038;86;21819;-74
2021/07/15 08:19:12;;;;;;;15.60;4.85;;;;;;;24.90;66.66;100119.50;1648624;87;21098;-74
2021/07/15 08:21:38;;;;;;;9.23;4.65;;;;;;;25.25;66.75;100119.53;1650899;87;21501;-74
2021/07/15 08:24:05;;;;;;;7.62;3.87;;;;;;;25.49;66.45;100126.61;1650497;85;21487;-74
2021/07/15 08:26:31;;;;;;;6.65;4.30;;;;;;;25.80;66.37;100128.77;1650747;87;21591;-74
2021/07/15 08:28:57;;;;;;;6.83;4.60;;;;;;;26.43;66.22;100131.87;1651941;85;22239;-74
2021/07/15 08:31:24;;;;;;;10.70;5.12;;;;;;;26.70;65.67;100135.86;1671952;85;21127;-74
2021/07/15 08:33:50;;;;;;;9.00;4.03;;;;;;;26.56;65.40;100128.55;1671945;85;21024;-74
2021/07/15 08:36:16;;;;;;;8.23;4.80;;;;;;;26.66;65.15;100133.96;1649864;87;21061;-75
2021/07/15 08:38:42;;;;;;;5.17;4.67;;;;;;;26.16;64.64;100142.63;1669335;85;21029;-76
2021/07/15 08:41:08;;;;;;;11.93;5.42;;;;;;;25.52;64.63;100137.55;1677876;85;21826;-76
2021/07/15 08:43:37;;;;;;;8.60;4.37;;;;;;;25.07;64.74;100133.71;1678263;85;20907;-77
2021/07/15 08:46:03;;;;;;;11.60;5.53;;;;;;;25.03;64.91;100145.43;1662633;85;21034;-76
2021/07/15 08:48:29;;;;;;;7.12;4.25;;;;;;;25.11;64.91;100145.73;1663738;85;21024;-75
2021/07/15 08:50:55;;;;;;;8.13;4.35;;;;;;;25.04;64.79;100147.91;1652759;85;21054;-76
2021/07/15 08:53:22;;;;;;;6.42;4.45;;;;;;;25.20;64.84;100152.27;1667623;85;21964;-73
2021/07/15 08:58:32;;;;;;;6.00;4.50;;;;;;;25.46;64.76;100166.77;1667488;85;21026;-74
2021/07/15 09:00:58;;;;;;;6.67;4.15;;;;;;;25.66;64.61;100168.69;1658058;85;21510;-73
2021/07/15 09:03:24;;;;;;;6.53;5.15;;;;;;;25.93;64.62;100169.19;1661944;85;20985;-72
2021/07/15 09:05:51;;;;;;;7.60;4.33;;;;;;;26.16;64.38;100174.06;1650821;85;21864;-73
2021/07/15 09:08:17;;;;;;;6.83;4.55;;;;;;;26.01;64.10;100178.73;1675016;85;21029;-72
2021/07/15 09:10:43;;;;;;;9.10;4.47;;;;;;;25.82;63.95;100178.52;1677884;85;21037;-73
2021/07/15 09:13:10;;;;;;;7.95;4.50;;;;;;;25.54;63.84;100186.74;1665998;85;21410;-73
2021/07/15 09:15:36;;;;;;;6.20;4.58;;;;;;;25.38;63.77;100180.13;1663554;85;21078;-73
2021/07/15 09:18:12;;;;;;;6.25;4.53;;;;;;;25.58;63.82;100180.19;1666167;85;21834;-72
2021/07/15 09:20:39;;;;;;;7.62;5.47;;;;;;;25.81;63.70;100188.63;1671697;85;21034;-75
2021/07/15 09:23:07;;;;;;;8.43;5.97;;;;;;;25.76;63.47;100181.78;1628896;86;21038;-73
2021/07/15 09:25:46;;;;;;;5.97;4.83;;;;;;;25.62;63.43;100188.08;1624981;88;21055;-75
2021/07/15 09:28:14;;;;;;;8.77;5.10;;;;;;;25.45;63.34;100194.33;1625245;86;20998;-74
2021/07/15 09:30:41;;;;;;;7.62;4.92;;;;;;;25.25;63.28;100190.52;1633508;86;21862;-73
2021/07/15 09:33:09;;;;;;;8.00;5.97;;;;;;;25.17;63.29;100198.40;1627985;88;21230;-72
2021/07/15 09:35:38;;;;;;;6.28;5.67;;;;;;;25.22;63.36;100193.79;1638009;86;21095;-78
2021/07/15 09:38:14;;;;;;;;;;;;;;;25.27;63.28;100191.05;1630001;88;21056;-74
2021/07/15 09:40:52;;;;;;;7.70;5.78;;;;;;;25.32;63.30;100195.16;1627712;88;20165;-75
2021/07/15 09:43:32;;;;;;;9.45;5.70;;;;;;;25.33;63.26;100189.95;1648882;85;21954;-75
2021/07/15 09:46:01;;;;;;;12.28;6.28;;;;;;;25.31;63.18;100190.78;1650343;85;21061;-74
2021/07/15 09:48:29;;;;;;;9.27;6.63;;;;;;;25.26;63.08;100207.14;1652813;85;21643;-70
2021/07/15 09:50:57;;;;;;;7.00;5.50;;;;;;;25.26;63.08;100207.14;1650230;85;21621;-70
2021/07/15 09:53:28;;;;;;;7.83;6.00;;;;;;;25.24;63.08;100201.14;1653309;85;21518;-71
2021/07/15 09:56:10;;;;;;;6.35;5.75;;;;;;;25.35;63.11;100201.44;1651653;85;22269;-69
2021/07/15 09:58:41;;;;;;;10.88;6.78;;;;;;;25.46;63.03;100195.98;1658816;85;21439;-69
2021/07/15 10:01:11;;;;;;;8.08;5.50;;;;;;;25.63;63.00;100206.11;1652145;85;21038;-70
2021/07/15 10:03:42;;;;;;;;;;;;;;;25.69;62.77;100211.84;1649440;87;21017;-70
2021/07/15 10:06:09;;;;;;;6.67;5.20;;;;;;;25.60;62.73;100209.40;1657927;85;20224;-70
2021/07/15 10:08:37;;;;;;;6.47;5.83;;;;;;;25.69;62.66;100218.67;1650148;85;21825;-72
2021/07/15 10:11:33;;;;;;;8.15;5.85;;;;;;;25.80;62.59;100221.13;1647280;87;21060;-70
2021/07/15 10:14:03;;;;;;;7.80;5.50;;;;;;;26.00;62.58;100220.28;1654389;85;20942;-70
2021/07/15 10:16:39;;;;;;;11.90;6.87;;;;;;;26.16;62.41;100209.61;1676014;85;21042;-70
2021/07/15 10:19:06;;;;;;;7.35;5.58;;;;;;;26.32;62.34;100216.70;1658557;85;20994;-71
2021/07/15 10:21:34;;;;;;;7.60;5.70;;;;;;;26.35;62.06;100219.98;1647646;85;21835;-71
2021/07/15 10:24:16;;;;;;;7.50;5.72;;;;;;;26.21;61.81;100223.28;1627817;88;21466;-71
2021/07/15 10:26:45;;;;;;;8.58;5.62;;;;;;;26.25;61.75;100235.84;1606872;88;21501;-71
2021/07/15 10:29:13;;;;;;;7.70;5.40;;;;;;;26.25;61.58;100235.84;1646385;87;21053;-71
2021/07/15 10:31:39;;;;;;;6.58;5.85;;;;;;;26.30;61.37;100235.31;1655501;85;21018;-71
2021/07/15 10:34:05;;;;;;;6.60;5.25;;;;;;;26.43;61.06;100244.01;1677448;85;21809;-71
2021/07/15 10:36:32;;;;;;;5.70;4.67;;;;;;;26.59;60.81;100242.88;1678077;85;21048;-71
2021/07/15 10:38:59;;;;;;;5.87;4.95;;;;;;;26.67;60.50;100239.58;1678180;85;21573;-71
2021/07/15 10:41:26;;;;;;;6.80;5.30;;;;;;;26.76;60.33;100241.45;1678156;85;20946;-71
2021/07/15 10:43:53;;;;;;;5.90;5.15;;;;;;;26.97;60.09;100244.94;1678327;85;21178;-71
2021/07/15 10:46:19;;;;;;;9.80;6.17;;;;;;;27.10;59.79;100244.31;1678063;85;22558;-71
2021/07/15 10:48:46;;;;;;;9.48;5.35;;;;;;;27.21;59.68;100243.70;1678183;85;21076;-71
2021/07/15 10:51:12;;;;;;;8.30;5.47;;;;;;;27.23;59.41;100237.41;1678131;85;21018;-71
2021/07/15 10:53:40;;;;;;;8.78;5.55;;;;;;;27.33;59.18;100244.73;1678156;85;21573;-71
2021/07/15 10:56:06;;;;;;;11.73;5.20;;;;;;;27.41;59.04;100242.19;1678227;85;21002;-71
2021/07/15 10:58:51;;;;;;;8.58;4.92;;;;;;;27.43;58.91;100237.81;1677875;85;21946;-71
2021/07/15 11:01:41;;;;;;;7.12;4.72;;;;;;;27.38;58.75;100239.20;1678245;85;21073;-71
2021/07/15 11:04:17;;;;;;;7.60;4.78;;;;;;;27.31;58.57;100245.83;1678159;85;21021;-71
2021/07/15 11:06:51;;;;;;;8.33;4.90;;;;;;;27.22;58.21;100254.38;1677796;84;21029;-71
2021/07/15 11:09:29;;;;;;;8.38;5.03;;;;;;;27.12;58.18;100257.19;1678003;85;21085;-71
2021/07/15 11:11:57;;;;;;;12.03;5.22;;;;;;;27.07;58.04;100250.36;1678233;85;21981;-71
2021/07/15 11:14:44;;;;;;;5.35;4.35;;;;;;;27.03;57.89;100249.27;1678243;85;21024;-71
2021/07/15 11:17:30;;;;;;;7.28;5.30;;;;;;;27.04;57.88;100248.19;1678264;85;21014;-71
2021/07/15 11:20:14;;;;;;;7.95;5.15;;;;;;;27.16;57.90;100248.64;1678116;85;21058;-71
2021/07/15 11:22:50;;;;;;;5.72;5.00;;;;;;;27.27;57.62;100248.86;1678120;84;21014;-71
2021/07/15 11:25:41;;;;;;;7.03;5.03;;;;;;;27.33;57.29;100250.20;1678031;85;21835;-71
2021/07/15 11:28:21;;;;;;;9.15;4.40;;;;;;;27.16;57.27;100250.02;1678048;85;21640;-71